createdAt,value
2018-12-24T00:01:16.156Z,1.65
2018-12-24T00:04:20.770Z,1.55
2018-12-24T00:07:25.921Z,1.65
2018-12-24T00:10:30.617Z,1.65
2018-12-24T00:13:35.225Z,1.77
2018-12-24T00:16:40.468Z,1.60
2018-12-24T00:19:45.772Z,1.67
2018-12-24T00:22:51.077Z,1.90
2018-12-24T00:25:56.248Z,1.80
2018-12-24T00:29:00.878Z,1.98
2018-12-24T00:32:05.483Z,1.80
2018-12-24T00:35:43.308Z,1.67
2018-12-24T00:38:51.830Z,1.55
2018-12-24T00:41:57.503Z,1.40
2018-12-24T00:45:03.119Z,1.47
2018-12-24T00:48:09.800Z,1.40
2018-12-24T00:51:15.443Z,1.47
2018-12-24T00:54:21.322Z,1.55
2018-12-24T00:57:26.951Z,1.80
2018-12-24T01:00:32.623Z,1.62
2018-12-24T01:03:38.254Z,1.90
2018-12-24T01:06:43.934Z,1.80
2018-12-24T01:09:49.585Z,1.60
2018-12-24T01:12:55.239Z,2.35
2018-12-24T01:16:00.866Z,1.40
2018-12-24T01:19:06.542Z,1.80
2018-12-24T01:22:12.304Z,1.60
2018-12-24T01:25:17.851Z,1.52
2018-12-24T01:33:05.221Z,1.60
2018-12-24T01:36:10.868Z,1.50
2018-12-24T01:39:16.547Z,1.92
2018-12-24T01:42:22.163Z,1.32
2018-12-24T01:45:27.893Z,1.50
2018-12-24T01:48:33.566Z,1.50
2018-12-24T01:51:39.202Z,1.45
2018-12-24T01:54:45.008Z,1.30
2018-12-24T01:57:52.334Z,1.60
2018-12-24T02:00:58.032Z,1.35
2018-12-24T02:04:03.687Z,1.40
2018-12-24T02:07:09.347Z,1.30
2018-12-24T02:10:15.087Z,1.30
2018-12-24T02:13:20.742Z,1.40
2018-12-24T02:16:26.430Z,1.30
2018-12-24T02:19:32.230Z,1.40
2018-12-24T02:22:38.160Z,1.10
2018-12-24T02:25:43.845Z,1.25
2018-12-24T02:28:49.654Z,1.25
2018-12-24T02:31:55.242Z,1.10
2018-12-24T02:35:01.291Z,1.30
2018-12-24T02:38:07.090Z,1.20
2018-12-24T02:41:12.785Z,1.20
2018-12-24T02:44:18.596Z,1.20
2018-12-24T02:47:24.294Z,1.12
2018-12-24T02:50:30.020Z,1.37
2018-12-24T02:53:35.670Z,0.98
2018-12-24T02:56:41.318Z,1.15
2018-12-24T02:59:47.081Z,1.20
2018-12-24T03:02:52.860Z,1.10
2018-12-24T03:05:58.447Z,1.00
2018-12-24T03:09:04.591Z,1.40
2018-12-24T03:12:10.415Z,1.07
2018-12-24T03:15:16.023Z,1.15
2018-12-24T03:18:21.699Z,1.40
2018-12-24T03:21:27.350Z,1.10
2018-12-24T03:24:32.999Z,1.10
2018-12-24T03:27:38.664Z,1.00
2018-12-24T03:30:44.319Z,1.00
2018-12-24T03:33:49.942Z,1.02
2018-12-24T03:36:55.610Z,1.12
2018-12-24T03:40:01.183Z,1.20
2018-12-24T03:43:12.474Z,1.00
2018-12-24T03:46:14.425Z,1.05
2018-12-24T03:49:20.147Z,1.20
2018-12-24T03:52:25.823Z,1.00
2018-12-24T03:55:31.446Z,1.10
2018-12-24T03:58:37.118Z,1.17
2018-12-24T04:01:42.778Z,1.00
2018-12-24T04:04:50.012Z,1.00
2018-12-24T04:07:55.659Z,1.05
2018-12-24T04:11:01.295Z,0.98
2018-12-24T04:14:06.967Z,1.00
2018-12-24T04:17:12.599Z,1.20
2018-12-24T04:20:18.278Z,1.10
2018-12-24T04:23:23.910Z,1.00
2018-12-24T04:26:31.251Z,0.82
2018-12-24T04:29:36.872Z,1.10
2018-12-24T04:32:44.224Z,0.90
2018-12-24T04:35:49.948Z,0.90
2018-12-24T04:38:55.583Z,1.10
2018-12-24T04:42:01.194Z,1.00
2018-12-24T04:45:06.881Z,0.88
2018-12-24T04:48:12.527Z,0.90
2018-12-24T04:51:19.884Z,0.98
2018-12-24T04:54:25.574Z,0.80
2018-12-24T04:57:31.230Z,0.80
2018-12-24T05:00:36.954Z,0.93
2018-12-24T05:03:42.619Z,1.00
2018-12-24T05:06:48.292Z,0.80
2018-12-24T05:09:53.922Z,0.80
2018-12-24T05:12:59.614Z,0.90
2018-12-24T05:16:05.243Z,1.00
2018-12-24T05:19:11.003Z,0.75
2018-12-24T05:22:16.586Z,0.80
2018-12-24T05:25:22.203Z,1.32
2018-12-24T05:28:27.898Z,1.25
2018-12-24T05:31:33.342Z,1.75
2018-12-24T05:34:38.969Z,1.70
2018-12-24T05:37:44.588Z,1.82
2018-12-24T05:40:50.434Z,1.40
2018-12-24T05:43:55.899Z,1.40
2018-12-24T05:47:01.492Z,1.55
2018-12-24T05:50:06.920Z,1.10
2018-12-24T05:53:12.672Z,1.45
2018-12-24T05:56:18.147Z,1.32
2018-12-24T05:59:23.655Z,1.00
2018-12-24T06:02:29.166Z,1.15
2018-12-24T06:05:34.646Z,0.95
2018-12-24T06:08:40.205Z,0.95
2018-12-24T06:11:45.679Z,0.98
2018-12-24T06:14:51.310Z,1.05
2018-12-24T06:17:57.766Z,1.10
2018-12-24T06:21:03.339Z,1.27
2018-12-24T06:24:08.782Z,1.00
2018-12-24T06:27:14.262Z,1.00
2018-12-24T06:30:19.702Z,1.20
2018-12-24T06:33:25.180Z,0.98
2018-12-24T06:36:30.636Z,1.40
2018-12-24T06:39:36.098Z,0.90
2018-12-24T06:42:43.583Z,0.90
2018-12-24T06:45:49.030Z,0.90
2018-12-24T06:48:54.494Z,1.00
2018-12-24T06:52:00.020Z,0.72
2018-12-24T06:55:05.506Z,0.90
2018-12-24T06:58:10.971Z,0.80
2018-12-24T07:01:16.434Z,0.60
2018-12-24T07:04:21.888Z,0.60
2018-12-24T07:07:27.355Z,0.70
2018-12-24T07:10:32.929Z,0.80
2018-12-24T07:13:38.383Z,0.82
2018-12-24T07:16:43.836Z,0.60
2018-12-24T07:19:49.278Z,0.80
2018-12-24T07:22:54.735Z,0.80
2018-12-24T07:26:00.182Z,0.70
2018-12-24T07:29:05.638Z,0.60
2018-12-24T07:32:11.095Z,0.68
2018-12-24T07:35:16.542Z,0.60
2018-12-24T07:38:22.027Z,0.60
2018-12-24T07:41:27.475Z,0.50
2018-12-24T07:44:32.931Z,0.60
2018-12-24T07:47:38.366Z,0.60
2018-12-24T07:50:43.811Z,0.68
2018-12-24T07:53:49.372Z,0.68
2018-12-24T07:56:54.819Z,1.07
2018-12-24T08:00:00.266Z,0.90
2018-12-24T08:03:05.714Z,1.10
2018-12-24T08:06:11.166Z,1.47
2018-12-24T08:09:16.643Z,4.10
2018-12-24T08:12:22.094Z,3.80
2018-12-24T08:15:27.658Z,7.25
2018-12-24T08:18:33.112Z,5.00
2018-12-24T08:21:38.614Z,4.62
2018-12-24T08:24:44.063Z,6.20
2018-12-24T08:27:49.576Z,9.40
2018-12-24T08:30:55.023Z,9.58
2018-12-24T08:34:00.524Z,11.50
2018-12-24T08:37:05.967Z,7.80
2018-12-24T08:40:11.781Z,9.03
2018-12-24T08:43:17.227Z,8.25
2018-12-24T08:46:22.703Z,7.72
2018-12-24T08:49:28.146Z,6.12
2018-12-24T08:52:33.606Z,5.83
2018-12-24T08:55:39.052Z,5.25
2018-12-24T08:58:44.493Z,5.35
2018-12-24T09:01:49.966Z,4.83
2018-12-24T09:04:55.412Z,4.17
2018-12-24T09:08:00.903Z,4.10
2018-12-24T09:11:06.356Z,3.92
2018-12-24T09:14:11.826Z,4.00
2018-12-24T09:17:17.281Z,4.25
2018-12-24T09:20:22.715Z,3.40
2018-12-24T09:23:28.202Z,3.50
2018-12-24T09:26:33.792Z,3.30
2018-12-24T09:29:39.330Z,3.05
2018-12-24T09:32:44.779Z,2.92
2018-12-24T09:35:50.262Z,3.05
2018-12-24T09:38:55.714Z,2.90
2018-12-24T09:42:01.166Z,3.08
2018-12-24T09:45:06.726Z,2.90
2018-12-24T09:48:12.178Z,2.92
2018-12-24T09:51:17.650Z,3.00
2018-12-24T09:54:23.310Z,2.90
2018-12-24T09:57:28.796Z,2.98
2018-12-24T10:00:34.234Z,2.72
2018-12-24T10:03:44.090Z,2.50
2018-12-24T10:06:49.946Z,2.27
2018-12-24T10:09:55.835Z,2.70
2018-12-24T10:13:01.490Z,2.40
2018-12-24T10:16:07.140Z,2.12
2018-12-24T10:19:12.794Z,2.20
2018-12-24T10:22:18.520Z,2.08
2018-12-24T10:25:24.206Z,2.40
2018-12-24T10:28:29.846Z,2.37
2018-12-24T10:31:35.515Z,2.30
2018-12-24T10:34:41.387Z,2.35
2018-12-24T10:37:46.990Z,2.22
2018-12-24T10:41:04.151Z,2.22
2018-12-24T10:44:09.773Z,2.00
2018-12-24T10:47:15.479Z,2.30
2018-12-24T10:50:21.099Z,2.20
2018-12-24T10:53:28.583Z,2.15
2018-12-24T10:56:34.253Z,2.58
2018-12-24T10:59:39.874Z,2.27
2018-12-24T11:02:45.528Z,1.92
2018-12-24T11:05:51.206Z,2.20
2018-12-24T11:08:56.959Z,2.20
2018-12-24T11:12:03.607Z,2.08
2018-12-24T11:15:11.415Z,2.00
2018-12-24T11:18:17.079Z,2.00
2018-12-24T11:21:22.747Z,1.90
2018-12-24T11:24:28.401Z,2.02
2018-12-24T11:27:34.051Z,1.95
2018-12-24T11:30:39.675Z,1.70
2018-12-24T11:33:45.331Z,1.80
2018-12-24T11:36:51.002Z,1.62
2018-12-24T11:39:56.662Z,1.65
2018-12-24T11:43:02.356Z,1.92
2018-12-24T11:46:07.939Z,1.65
2018-12-24T11:49:13.595Z,1.50
2018-12-24T11:52:19.256Z,1.72
2018-12-24T11:55:24.924Z,1.60
2018-12-24T11:58:30.575Z,1.42
2018-12-24T12:01:36.206Z,1.60
2018-12-24T12:04:41.896Z,1.50
2018-12-24T12:07:47.534Z,2.30
2018-12-24T12:15:08.602Z,1.75
2018-12-24T12:18:14.235Z,1.65
2018-12-24T12:21:19.994Z,1.50
2018-12-24T12:24:25.641Z,1.60
2018-12-24T12:27:31.319Z,1.52
2018-12-24T12:30:36.947Z,1.40
2018-12-24T12:33:44.532Z,1.50
2018-12-24T12:36:50.206Z,1.40
2018-12-24T12:39:56.031Z,1.60
2018-12-24T12:43:01.734Z,1.30
2018-12-24T12:46:07.353Z,1.37
2018-12-24T12:49:13.013Z,1.30
2018-12-24T12:52:18.644Z,1.22
2018-12-24T12:55:24.311Z,1.37
2018-12-24T12:58:29.995Z,1.20
2018-12-24T13:01:35.726Z,1.57
2018-12-24T13:04:41.411Z,1.50
2018-12-24T13:07:47.032Z,1.60
2018-12-24T13:10:52.643Z,1.40
2018-12-24T13:13:58.414Z,1.40
2018-12-24T13:17:04.083Z,1.27
2018-12-24T13:20:09.746Z,1.37
2018-12-24T13:23:15.367Z,1.20
2018-12-24T13:26:21.044Z,1.20
2018-12-24T13:29:26.701Z,1.20
2018-12-24T13:32:34.441Z,1.10
2018-12-24T13:35:40.146Z,1.60
2018-12-24T13:38:45.792Z,1.30
2018-12-24T13:41:51.548Z,1.30
2018-12-24T13:44:57.211Z,1.17
2018-12-24T13:48:03.870Z,1.40
2018-12-24T13:51:09.543Z,1.15
2018-12-24T13:54:15.294Z,1.17
2018-12-24T13:57:22.743Z,1.20
2018-12-24T14:00:28.446Z,1.10
2018-12-24T14:03:34.082Z,1.30
2018-12-24T14:06:39.726Z,1.22
2018-12-24T14:09:45.410Z,1.30
2018-12-24T14:12:51.039Z,1.15
2018-12-24T14:15:56.712Z,1.07
2018-12-24T14:19:02.468Z,1.52
2018-12-24T14:22:08.325Z,1.10
2018-12-24T14:25:13.975Z,1.17
2018-12-24T14:28:19.614Z,1.02
2018-12-24T14:31:25.386Z,0.90
2018-12-24T14:34:31.039Z,1.10
2018-12-24T14:37:36.791Z,0.90
2018-12-24T14:40:42.418Z,1.10
2018-12-24T14:43:48.096Z,1.02
2018-12-24T14:46:53.755Z,0.90
2018-12-24T14:49:59.400Z,0.98
2018-12-24T14:53:05.130Z,1.12
2018-12-24T14:56:10.808Z,0.95
2018-12-24T14:59:16.470Z,0.90
2018-12-24T15:02:22.198Z,1.00
2018-12-24T15:05:27.865Z,0.90
2018-12-24T15:08:34.655Z,1.10
2018-12-24T15:11:40.290Z,0.98
2018-12-24T15:14:46.075Z,1.00
2018-12-24T15:17:51.719Z,1.70
2018-12-24T15:20:57.599Z,1.10
2018-12-24T15:24:03.232Z,0.85
2018-12-24T15:27:08.906Z,0.90
2018-12-24T15:30:14.506Z,0.85
2018-12-24T15:33:20.214Z,0.95
2018-12-24T15:36:25.840Z,0.80
2018-12-24T15:39:31.472Z,0.70
2018-12-24T15:42:37.158Z,0.95
2018-12-24T15:45:42.786Z,0.90
2018-12-24T15:48:50.180Z,0.90
2018-12-24T15:51:55.920Z,0.60
2018-12-24T15:55:01.608Z,0.90
2018-12-24T15:58:07.243Z,0.90
2018-12-24T16:01:14.735Z,0.70
2018-12-24T16:04:20.518Z,0.78
2018-12-24T16:07:25.979Z,0.78
2018-12-24T16:10:31.559Z,0.90
2018-12-24T16:13:37.015Z,0.80
2018-12-24T16:16:50.784Z,0.80
2018-12-24T16:19:49.884Z,0.90
2018-12-24T16:22:55.331Z,0.80
2018-12-24T16:26:00.782Z,0.70
2018-12-24T16:29:06.243Z,0.90
2018-12-24T16:32:11.687Z,0.82
2018-12-24T16:35:17.139Z,0.88
2018-12-24T16:38:22.596Z,0.90
2018-12-24T16:41:28.083Z,1.27
2018-12-24T16:44:33.538Z,1.05
2018-12-24T16:47:38.998Z,0.90
2018-12-24T16:50:44.447Z,0.70
2018-12-24T16:53:49.899Z,0.90
2018-12-24T16:56:55.424Z,0.85
2018-12-24T17:00:00.873Z,0.88
2018-12-24T17:03:06.319Z,0.95
2018-12-24T17:06:11.766Z,0.90
2018-12-24T17:09:17.252Z,1.05
2018-12-24T17:12:22.707Z,1.00
2018-12-24T17:15:28.158Z,0.90
2018-12-24T17:18:33.618Z,0.90
2018-12-24T17:21:39.244Z,1.00
2018-12-24T17:24:44.758Z,0.98
2018-12-24T17:27:50.219Z,0.90
2018-12-24T17:30:55.791Z,1.10
2018-12-24T17:34:01.234Z,0.90
2018-12-24T17:37:06.683Z,0.90
2018-12-24T17:40:12.127Z,1.10
2018-12-24T17:43:17.582Z,0.98
2018-12-24T17:46:23.023Z,1.20
2018-12-24T17:49:28.478Z,1.30
2018-12-24T17:52:34.076Z,1.10
2018-12-24T17:55:39.587Z,1.00
2018-12-24T17:58:45.070Z,1.00
2018-12-24T18:01:50.614Z,1.25
2018-12-24T18:04:56.059Z,1.20
2018-12-24T18:08:01.514Z,1.35
2018-12-24T18:11:06.993Z,1.20
2018-12-24T18:14:12.452Z,1.20
2018-12-24T18:17:24.761Z,1.30
2018-12-24T18:20:25.008Z,1.20
2018-12-24T18:23:30.455Z,1.20
2018-12-24T18:26:35.939Z,1.10
2018-12-24T18:29:41.849Z,1.40
2018-12-24T18:32:47.303Z,1.30
2018-12-24T18:35:52.758Z,1.00
2018-12-24T18:38:58.210Z,1.12
2018-12-24T18:42:03.727Z,0.98
2018-12-24T18:45:09.179Z,0.80
2018-12-24T18:48:14.737Z,1.00
2018-12-24T18:51:20.174Z,0.80
2018-12-24T18:54:25.697Z,0.72
2018-12-24T18:57:31.136Z,0.88
2018-12-24T19:00:36.616Z,0.98
2018-12-24T19:03:42.070Z,1.00
2018-12-24T19:06:47.530Z,0.90
2018-12-24T19:09:53.298Z,0.72
2018-12-24T19:12:58.953Z,0.90
2018-12-24T19:16:04.434Z,0.80
2018-12-24T19:19:09.875Z,0.98
2018-12-24T19:22:15.362Z,0.95
2018-12-24T19:25:20.806Z,1.02
2018-12-24T19:28:26.290Z,0.80
2018-12-24T19:31:31.754Z,0.80
2018-12-24T19:34:37.529Z,0.90
2018-12-24T19:37:42.981Z,0.80
2018-12-24T19:40:48.730Z,0.80
2018-12-24T19:43:54.195Z,1.05
2018-12-24T19:46:59.795Z,0.90
2018-12-24T19:50:05.273Z,0.90
2018-12-24T19:53:10.751Z,0.88
2018-12-24T19:56:16.204Z,1.00
2018-12-24T19:59:21.702Z,0.88
2018-12-24T20:02:27.164Z,1.10
2018-12-24T20:05:32.642Z,0.80
2018-12-24T20:08:38.339Z,1.10
2018-12-24T20:11:43.850Z,0.90
2018-12-24T20:14:49.297Z,1.00
2018-12-24T20:17:58.342Z,1.00
2018-12-24T20:21:01.887Z,0.98
2018-12-24T20:24:07.509Z,0.90
2018-12-24T20:27:12.966Z,1.00
2018-12-24T20:30:18.411Z,1.02
2018-12-24T20:33:23.858Z,1.10
2018-12-24T20:36:29.317Z,0.70
2018-12-24T20:39:34.762Z,1.00
2018-12-24T20:42:40.213Z,1.00
2018-12-24T20:45:45.748Z,0.90
2018-12-24T20:48:52.524Z,0.90
2018-12-24T20:51:58.059Z,1.10
2018-12-24T20:55:03.509Z,1.30
2018-12-24T20:58:08.964Z,1.10
2018-12-24T21:01:14.419Z,1.20
2018-12-24T21:04:19.875Z,1.32
2018-12-24T21:07:25.327Z,1.35
2018-12-24T21:10:30.784Z,1.05
2018-12-24T21:13:36.443Z,1.12
2018-12-24T21:16:41.994Z,1.10
2018-12-24T21:19:47.443Z,1.27
2018-12-24T21:22:53.095Z,1.12
2018-12-24T21:26:00.215Z,1.30
2018-12-24T21:29:05.660Z,1.20
2018-12-24T21:32:11.159Z,1.32
2018-12-24T21:35:16.610Z,1.30
2018-12-24T21:38:22.066Z,1.22
2018-12-24T21:41:27.502Z,1.22
2018-12-24T21:44:32.954Z,1.20
2018-12-24T21:47:38.446Z,1.52
2018-12-24T21:50:43.901Z,1.42
2018-12-24T21:53:49.346Z,1.50
2018-12-24T21:56:54.793Z,1.50
2018-12-24T22:00:00.292Z,1.20
2018-12-24T22:03:05.818Z,1.20
2018-12-24T22:06:11.308Z,1.15
2018-12-24T22:09:16.924Z,1.10
2018-12-24T22:12:22.602Z,1.50
2018-12-24T22:15:29.959Z,1.20
2018-12-24T22:18:35.654Z,1.20
2018-12-24T22:21:41.373Z,1.30
2018-12-24T22:24:47.039Z,1.10
2018-12-24T22:27:52.839Z,1.32
2018-12-24T22:30:58.470Z,0.98
2018-12-24T22:34:04.166Z,1.55
2018-12-24T22:37:09.749Z,1.30
2018-12-24T22:40:15.546Z,1.20
2018-12-24T22:43:21.183Z,1.40
2018-12-24T22:46:26.845Z,1.32
2018-12-24T22:49:32.483Z,1.52
2018-12-24T22:52:38.207Z,1.30
2018-12-24T22:55:44.786Z,1.60
2018-12-24T22:58:50.488Z,1.10
2018-12-24T23:01:56.221Z,1.40
2018-12-24T23:05:02.186Z,1.30
2018-12-24T23:08:07.803Z,1.27
2018-12-24T23:11:13.607Z,1.50
2018-12-24T23:14:19.215Z,1.40
2018-12-24T23:17:25.255Z,1.37
2018-12-24T23:20:31.058Z,1.00
2018-12-24T23:23:37.042Z,1.32
2018-12-24T23:26:42.766Z,1.17
2018-12-24T23:29:48.662Z,1.20
2018-12-24T23:32:54.283Z,1.07
2018-12-24T23:36:01.007Z,2.00
2018-12-24T23:39:07.510Z,1.37
2018-12-24T23:42:13.283Z,1.50
2018-12-24T23:45:19.047Z,1.20
2018-12-24T23:48:24.814Z,0.98
2018-12-24T23:51:31.858Z,1.10
2018-12-24T23:54:37.552Z,1.05
2018-12-24T23:57:43.190Z,1.17
